Time;durP1;ratioP1;P1;durP2;ratioP2;P2;SDS_P1;SDS_P2;PMS_P1;PMS_P2;Temp;Humidity;BMP_temperature;BMP_pressure;BME280_temperature;BME280_humidity;BME280_pressure;Samples;Min_cycle;Max_cycle;Signal;HPM_P1;HPM_P2
2021/11/22 00:04:45;;;;;;;0.85;0.73;;;20.40;30.50;20.90;93312.00;;;;10253717;28;47045;-67
2021/11/22 00:09:45;;;;;;;0.70;0.52;;;20.40;30.50;20.80;93314.00;;;;10252856;28;47485;-66
2021/11/22 00:14:46;;;;;;;1.00;0.60;;;20.40;30.60;20.90;93314.00;;;;10253505;28;46408;-66
2021/11/22 00:19:47;;;;;;;0.60;0.57;;;20.40;30.50;20.90;93329.00;;;;10269729;28;45311;-67
2021/11/22 00:24:47;;;;;;;0.85;0.68;;;20.40;30.60;20.90;93318.00;;;;10252999;28;47530;-67
2021/11/22 00:29:48;;;;;;;0.50;0.40;;;20.40;30.50;20.90;93318.00;;;;10252578;28;47311;-67
2021/11/22 00:34:54;;;;;;;0.40;0.40;;;20.40;30.80;20.90;93337.00;;;;10252971;28;47081;-68
2021/11/22 00:39:55;;;;;;;;;;;20.40;30.60;20.90;93329.00;;;;10253549;28;45444;-67
2021/11/22 00:44:57;;;;;;;0.40;0.40;;;20.40;30.60;20.90;93331.00;;;;10252921;28;45378;-66
2021/11/22 00:49:57;;;;;;;0.50;0.50;;;20.40;30.60;20.80;93336.00;;;;10292652;28;46104;-68
2021/11/22 00:54:58;;;;;;;0.45;0.43;;;20.40;30.60;20.90;93349.00;;;;10292551;28;46905;-68
2021/11/22 00:59:59;;;;;;;0.68;0.57;;;20.40;30.60;20.90;93334.00;;;;10295411;28;45322;-67
2021/11/22 01:04:59;;;;;;;0.60;0.50;;;20.40;30.60;20.80;93357.00;;;;10299274;28;48315;-67
2021/11/22 01:10:01;;;;;;;0.70;0.50;;;20.40;30.60;20.90;93371.00;;;;10298393;28;48045;-67
2021/11/22 01:15:08;;;;;;;0.50;0.50;;;20.40;30.60;20.80;93356.00;;;;10299063;28;47588;-65
2021/11/22 01:20:16;;;;;;;0.77;0.55;;;20.40;30.60;20.80;93373.00;;;;10298837;28;45326;-66
2021/11/22 01:25:17;;;;;;;0.63;0.40;;;20.40;30.60;20.80;93367.00;;;;10297875;28;46958;-67
2021/11/22 01:30:18;;;;;;;0.63;0.50;;;20.40;30.60;20.80;93367.00;;;;10298232;28;46674;-68
2021/11/22 01:35:19;;;;;;;0.60;0.60;;;20.40;30.60;20.80;93368.00;;;;10298234;28;48204;-67
2021/11/22 01:40:24;;;;;;;0.60;0.50;;;20.40;30.60;20.80;93378.00;;;;10297988;28;45213;-68
2021/11/22 01:45:26;;;;;;;0.32;0.32;;;20.40;30.60;20.80;93372.00;;;;10298495;28;45350;-67
2021/11/22 01:50:28;;;;;;;0.40;0.40;;;20.40;30.60;20.80;93384.00;;;;10287673;28;46407;-67
2021/11/22 01:55:30;;;;;;;0.52;0.52;;;20.40;30.70;20.90;93370.00;;;;10257734;28;45663;-66
2021/11/22 02:00:43;;;;;;;0.60;0.60;;;20.40;30.60;20.90;93375.00;;;;10253547;28;46919;-68
2021/11/22 02:05:45;;;;;;;0.68;0.50;;;20.40;30.60;20.80;93378.00;;;;10254537;28;45296;-67
2021/11/22 02:10:47;;;;;;;0.40;0.40;;;20.40;30.60;20.80;93371.00;;;;10255740;28;47026;-67
2021/11/22 02:15:48;;;;;;;0.50;0.40;;;20.40;30.70;20.80;93396.00;;;;10274258;28;45412;-67
2021/11/22 02:20:49;;;;;;;0.38;0.38;;;20.40;30.70;20.80;93402.00;;;;10256063;28;46188;-67
2021/11/22 02:25:50;;;;;;;0.30;0.30;;;20.40;30.70;20.80;93396.00;;;;10256497;28;46999;-67
2021/11/22 02:30:51;;;;;;;0.55;0.50;;;20.40;30.60;20.80;93388.00;;;;10255926;28;48249;-71
2021/11/22 02:35:58;;;;;;;0.70;0.57;;;20.40;30.70;20.80;93395.00;;;;10256149;28;47179;-68
2021/11/22 02:40:59;;;;;;;;;;;20.40;30.70;20.80;93387.00;;;;10256306;28;47219;-68
2021/11/22 02:46:00;;;;;;;0.47;0.40;;;20.40;30.70;20.80;93400.00;;;;10255895;28;46996;-68
2021/11/22 02:51:01;;;;;;;0.50;0.50;;;20.40;30.70;20.80;93385.00;;;;10287263;28;48531;-68
2021/11/22 02:56:07;;;;;;;0.40;0.40;;;20.40;30.80;20.80;93389.00;;;;10296261;28;47126;-67
2021/11/22 03:01:11;;;;;;;1.48;0.50;;;20.40;30.80;20.80;93389.00;;;;10295593;28;45116;-66
2021/11/22 03:06:13;;;;;;;0.63;0.55;;;20.30;30.70;20.80;93393.00;;;;10295225;28;46351;-67
2021/11/22 03:11:16;;;;;;;0.60;0.50;;;20.40;30.70;20.80;93395.00;;;;10295266;28;46260;-67
2021/11/22 03:16:18;;;;;;;0.43;0.40;;;20.40;30.70;20.80;93399.00;;;;10295323;28;46927;-67
2021/11/22 03:21:18;;;;;;;0.50;0.50;;;20.40;30.70;20.80;93398.00;;;;10294746;28;45452;-67
2021/11/22 03:26:19;;;;;;;0.70;0.57;;;20.30;30.70;20.80;93416.00;;;;10295587;28;45611;-68
2021/11/22 03:31:20;;;;;;;0.70;0.50;;;20.40;30.70;20.80;93418.00;;;;10295237;28;46449;-67
2021/11/22 03:36:21;;;;;;;0.50;0.40;;;20.40;30.70;20.80;93416.00;;;;10294948;28;45368;-66
2021/11/22 03:41:23;;;;;;;0.38;0.35;;;20.40;30.70;20.80;93436.00;;;;10294659;28;48050;-67
2021/11/22 03:46:25;;;;;;;0.40;0.40;;;20.30;30.70;20.80;93427.00;;;;10294332;28;47483;-67
2021/11/22 03:51:26;;;;;;;0.70;0.43;;;20.30;30.70;20.80;93432.00;;;;10312581;22;45369;-66
2021/11/22 03:56:26;;;;;;;0.40;0.40;;;20.30;30.70;20.80;93435.00;;;;10367448;28;46288;-66
2021/11/22 04:01:27;;;;;;;0.65;0.65;;;20.40;30.70;20.80;93453.00;;;;10345046;28;45240;-67
2021/11/22 04:06:28;;;;;;;0.50;0.50;;;20.30;30.70;20.80;93451.00;;;;10293216;28;47029;-67
2021/11/22 04:11:28;;;;;;;0.70;0.57;;;20.40;30.70;20.80;93441.00;;;;10309734;28;46410;-66
2021/11/22 04:16:30;;;;;;;0.68;0.68;;;20.40;30.70;20.80;93468.00;;;;10309924;28;45531;-66
2021/11/22 04:21:30;;;;;;;1.20;0.50;;;20.40;30.80;20.80;93470.00;;;;10293220;28;47657;-66
2021/11/22 04:26:31;;;;;;;0.50;0.50;;;20.40;30.70;20.80;93488.00;;;;10309533;28;46898;-66
2021/11/22 04:31:32;;;;;;;0.50;0.50;;;20.40;30.70;20.80;93471.00;;;;10309381;28;45234;-66
2021/11/22 04:36:33;;;;;;;0.70;0.60;;;20.40;30.70;20.80;93489.00;;;;10314463;28;47584;-65
2021/11/22 04:41:34;;;;;;;0.52;0.50;;;20.40;30.70;20.80;93487.00;;;;10315929;28;48417;-67
2021/11/22 04:46:34;;;;;;;1.00;0.50;;;20.40;30.70;20.80;93492.00;;;;10315929;28;48090;-67
2021/11/22 04:51:36;;;;;;;0.80;0.50;;;20.40;30.70;20.80;93493.00;;;;10352981;28;45106;-65
2021/11/22 04:56:36;;;;;;;0.30;0.30;;;20.40;30.70;20.90;93497.00;;;;10356737;28;47912;-65
2021/11/22 05:01:37;;;;;;;0.38;0.38;;;20.40;30.60;20.80;93490.00;;;;10356774;28;46600;-65
2021/11/22 05:06:38;;;;;;;0.43;0.40;;;20.40;30.70;20.90;93499.00;;;;10339333;28;47252;-65
2021/11/22 05:11:41;;;;;;;0.52;0.50;;;20.40;30.60;20.90;93512.00;;;;10356049;28;46209;-65
2021/11/22 05:16:43;;;;;;;0.50;0.50;;;20.50;30.80;21.00;93504.00;;;;10355941;28;47362;-67
2021/11/22 05:21:44;;;;;;;0.52;0.30;;;20.50;30.60;21.10;93513.00;;;;10339091;28;47989;-66
2021/11/22 05:26:45;;;;;;;0.50;0.50;;;20.60;30.60;21.20;93522.00;;;;10339040;28;47383;-66
2021/11/22 05:31:46;;;;;;;0.80;0.50;;;20.60;30.50;21.20;93531.00;;;;10338925;28;47105;-65
2021/11/22 05:36:47;;;;;;;0.43;0.40;;;20.70;30.50;21.30;93520.00;;;;10338715;28;47232;-67
2021/11/22 05:41:48;;;;;;;0.40;0.40;;;20.80;30.40;21.40;93521.00;;;;10355034;28;45373;-67
2021/11/22 05:46:50;;;;;;;0.50;0.50;;;20.80;30.30;21.30;93520.00;;;;10338380;28;46840;-66
2021/11/22 05:51:51;;;;;;;0.38;0.35;;;20.80;30.20;21.30;93519.00;;;;10315247;28;45603;-66
2021/11/22 05:56:52;;;;;;;0.43;0.40;;;20.90;30.30;21.30;93526.00;;;;10313863;28;47208;-66
2021/11/22 06:01:54;;;;;;;0.30;0.30;;;20.90;30.30;21.30;93527.00;;;;10313737;28;45211;-66
2021/11/22 06:06:55;;;;;;;0.43;0.43;;;20.80;30.20;21.20;93536.00;;;;10314089;28;45368;-66
2021/11/22 06:11:56;;;;;;;0.50;0.47;;;20.80;30.20;21.20;93531.00;;;;10313864;28;45198;-66
2021/11/22 06:16:57;;;;;;;0.40;0.40;;;20.80;30.30;21.10;93553.00;;;;10313347;28;47074;-66
2021/11/22 06:21:58;;;;;;;0.50;0.38;;;20.70;30.30;21.10;93567.00;;;;10313110;28;45390;-66
2021/11/22 06:26:58;;;;;;;0.47;0.40;;;20.60;30.30;21.10;93563.00;;;;10312666;28;47135;-66
2021/11/22 06:31:59;;;;;;;0.60;0.40;;;20.60;30.30;21.10;93560.00;;;;10312108;28;47645;-66
2021/11/22 06:36:59;;;;;;;0.55;0.45;;;20.60;30.40;21.10;93572.00;;;;10312448;28;45388;-67
2021/11/22 06:42:00;;;;;;;0.40;0.40;;;20.70;30.40;21.20;93575.00;;;;10312411;28;45645;-67
2021/11/22 06:47:02;;;;;;;0.60;0.50;;;20.70;30.50;21.30;93590.00;;;;10312343;28;48234;-67
2021/11/22 06:52:03;;;;;;;0.65;0.60;;;20.70;30.40;21.30;93605.00;;;;10315993;28;47110;-67
2021/11/22 06:57:04;;;;;;;0.50;0.40;;;20.80;30.40;21.40;93595.00;;;;10333981;28;46149;-67
2021/11/22 07:02:06;;;;;;;0.40;0.35;;;20.80;30.30;21.40;93595.00;;;;10352248;28;45122;-67
2021/11/22 07:07:08;;;;;;;0.60;0.47;;;20.90;30.30;21.40;93618.00;;;;10318323;28;45417;-67
2021/11/22 07:12:09;;;;;;;0.77;0.50;;;20.90;30.30;21.40;93631.00;;;;10327926;28;46319;-67
2021/11/22 07:17:11;;;;;;;0.30;0.30;;;20.90;30.30;21.30;93655.00;;;;10327398;28;48191;-66
2021/11/22 07:22:13;;;;;;;0.70;0.50;;;20.90;30.30;21.30;93650.00;;;;10327553;28;47508;-65
2021/11/22 07:27:14;;;;;;;1.23;0.70;;;20.80;30.30;21.10;93650.00;;;;10325061;28;46124;-64
2021/11/22 07:32:15;;;;;;;0.52;0.40;;;20.80;30.10;21.00;93652.00;;;;10309133;28;45166;-70
2021/11/22 07:37:16;;;;;;;0.75;0.60;;;20.70;30.00;20.90;93654.00;;;;10308379;28;48395;-64
2021/11/22 07:42:16;;;;;;;0.57;0.38;;;20.60;29.20;21.00;93666.00;;;;10308808;28;46400;-63
2021/11/22 07:47:18;;;;;;;1.38;0.40;;;20.60;29.50;21.10;93680.00;;;;10311860;28;45364;-69
2021/11/22 07:52:19;;;;;;;0.75;0.50;;;20.60;29.40;21.10;93679.00;;;;10332918;28;48264;-65
2021/11/22 07:57:20;;;;;;;0.95;0.40;;;20.60;29.90;21.10;93699.00;;;;10349401;28;45243;-65
2021/11/22 08:02:20;;;;;;;0.60;0.50;;;20.70;31.00;21.10;93702.00;;;;10268317;28;47234;-65
2021/11/22 08:07:22;;;;;;;3.13;0.50;;;20.70;30.70;21.20;93699.00;;;;10285962;28;45344;-65
2021/11/22 08:12:26;;;;;;;0.50;0.40;;;20.70;30.50;21.20;93712.00;;;;10301756;28;46406;-66
2021/11/22 08:17:29;;;;;;;0.98;0.40;;;20.80;30.50;21.20;93720.00;;;;10308346;28;47025;-63
2021/11/22 08:22:30;;;;;;;0.52;0.40;;;20.80;30.80;21.30;93735.00;;;;10314207;28;45190;-64
2021/11/22 08:27:31;;;;;;;3.25;0.40;;;20.80;30.70;21.20;93742.00;;;;10313741;28;48328;-62
2021/11/22 08:32:32;;;;;;;1.33;0.50;;;20.80;30.20;21.20;93736.00;;;;10315405;28;45233;-65
2021/11/22 08:37:36;;;;;;;1.30;0.60;;;20.80;29.80;21.10;93731.00;;;;10316219;28;45364;-60
2021/11/22 08:42:37;;;;;;;2.75;0.50;;;20.70;29.80;21.10;93750.00;;;;10337096;28;47365;-66
2021/11/22 08:47:38;;;;;;;0.88;0.50;;;20.70;30.00;21.00;93744.00;;;;10306909;28;47132;-63
2021/11/22 08:52:44;;;;;;;1.48;0.70;;;20.70;29.90;20.90;93761.00;;;;10315090;28;47125;-62
2021/11/22 08:57:44;;;;;;;1.65;0.55;;;20.60;29.30;20.90;93774.00;;;;10352657;28;45450;-62
2021/11/22 09:02:45;;;;;;;5.90;0.63;;;20.60;29.00;20.90;93760.00;;;;10339342;28;47398;-62
2021/11/22 09:07:46;;;;;;;5.63;0.70;;;20.50;28.90;20.80;93765.00;;;;10339558;28;46989;-62
2021/11/22 09:12:47;;;;;;;11.00;3.78;;;20.50;29.50;20.80;93785.00;;;;10318953;28;47153;-63
2021/11/22 09:17:48;;;;;;;12.52;4.20;;;20.50;29.50;20.80;93794.00;;;;10315249;28;45244;-64
2021/11/22 09:22:49;;;;;;;9.73;3.60;;;20.50;29.30;20.80;93781.00;;;;10288053;28;47175;-67
2021/11/22 09:27:50;;;;;;;6.85;2.38;;;20.50;29.70;20.90;93791.00;;;;10273350;28;46935;-62
2021/11/22 09:32:51;;;;;;;5.60;2.17;;;20.50;29.70;21.00;93794.00;;;;10290049;28;45331;-63
2021/11/22 09:37:53;;;;;;;4.05;1.50;;;20.60;29.90;21.00;93790.00;;;;10312217;28;47784;-63
2021/11/22 09:42:55;;;;;;;4.68;1.90;;;20.50;29.90;21.00;93814.00;;;;10313922;28;45594;-64
2021/11/22 09:48:01;;;;;;;3.13;1.35;;;20.60;30.00;20.90;93825.00;;;;10321018;28;45353;-61
2021/11/22 09:53:03;;;;;;;4.47;1.10;;;20.50;29.40;20.80;93804.00;;;;10353400;28;46517;-64
2021/11/22 09:58:07;;;;;;;4.90;1.10;;;20.50;29.60;20.90;93806.00;;;;10337583;28;47085;-63
2021/11/22 10:03:17;;;;;;;8.32;0.88;;;20.50;30.10;20.90;93812.00;;;;10354798;28;45520;-68
2021/11/22 10:08:21;;;;;;;15.40;1.30;;;20.50;30.50;20.90;93807.00;;;;10312233;28;46977;-61
2021/11/22 10:13:25;;;;;;;7.45;0.93;;;20.50;30.30;20.90;93820.00;;;;10313707;28;45305;-61
2021/11/22 10:18:32;;;;;;;3.40;0.70;;;20.50;30.30;21.10;93798.00;;;;10313697;28;45336;-66
2021/11/22 10:23:36;;;;;;;4.90;0.90;;;20.60;31.40;21.10;93809.00;;;;10313458;28;45221;-62
2021/11/22 10:28:40;;;;;;;4.20;0.85;;;20.60;31.80;21.10;93812.00;;;;10312736;28;45333;-65
2021/11/22 10:33:44;;;;;;;5.25;0.70;;;20.70;31.30;21.10;93810.00;;;;10294736;28;47012;-65
2021/11/22 10:38:54;;;;;;;1.80;0.60;;;20.80;31.30;21.10;93820.00;;;;10295925;28;47218;-64
2021/11/22 10:44:08;;;;;;;4.38;0.70;;;20.80;31.30;21.00;93797.00;;;;10295296;28;47252;-63
2021/11/22 10:49:16;;;;;;;2.88;0.63;;;20.70;30.20;21.10;93802.00;;;;10321633;28;46206;-64
2021/11/22 10:54:20;;;;;;;0.88;0.40;;;20.70;30.50;21.10;93816.00;;;;10352081;28;45215;-61
2021/11/22 10:59:22;;;;;;;1.35;0.43;;;20.70;30.70;21.10;93815.00;;;;10350635;28;46286;-61
2021/11/22 11:04:31;;;;;;;1.40;0.60;;;20.70;30.70;21.10;93808.00;;;;10311432;28;45176;-66
2021/11/22 11:09:36;;;;;;;0.73;0.30;;;20.70;30.70;21.10;93800.00;;;;10295237;28;47977;-68
2021/11/22 11:14:42;;;;;;;1.20;0.30;;;20.70;30.70;21.20;93794.00;;;;10310539;28;45176;-63
2021/11/22 11:19:45;;;;;;;2.58;0.38;;;20.80;31.10;21.10;93808.00;;;;10310211;28;46487;-64
2021/11/22 11:24:47;;;;;;;0.40;0.30;;;20.80;30.90;21.20;93811.00;;;;10310265;28;46699;-62
2021/11/22 11:29:47;;;;;;;3.42;0.30;;;20.80;31.00;21.20;93816.00;;;;10310158;28;45337;-63
2021/11/22 11:34:52;;;;;;;2.35;0.45;;;20.80;30.80;21.10;93814.00;;;;10293808;28;46398;-63
2021/11/22 11:40:37;;;;;;;1.33;0.50;;;20.70;30.70;21.10;93816.00;;;;10309948;28;45618;-62
2021/11/22 11:46:01;;;;;;;0.75;0.50;;;20.70;30.70;21.10;93815.00;;;;10309035;28;48303;-61
2021/11/22 11:51:39;;;;;;;1.63;0.40;;;20.70;30.70;21.20;93812.00;;;;10305974;28;45358;-64
2021/11/22 11:56:51;;;;;;;0.55;0.40;;;20.70;31.20;21.20;93819.00;;;;10311093;28;45485;-64
2021/11/22 12:02:30;;;;;;;0.95;0.40;;;20.80;31.90;21.20;93823.00;;;;10341798;28;46489;-67
2021/11/22 12:07:48;;;;;;;1.90;0.40;;;20.80;31.60;21.20;93817.00;;;;10300276;28;45343;-68
2021/11/22 12:12:57;;;;;;;0.70;0.30;;;20.80;31.30;21.20;93811.00;;;;10309966;28;48114;-67
2021/11/22 12:17:59;;;;;;;1.23;0.40;;;20.80;31.30;21.20;93819.00;;;;10308853;28;46919;-62
2021/11/22 12:23:07;;;;;;;1.48;0.20;;;20.80;31.40;21.20;93831.00;;;;10307319;28;47002;-63
2021/11/22 12:28:23;;;;;;;0.63;0.30;;;20.80;30.80;21.20;93810.00;;;;10292713;28;47083;-62
2021/11/22 12:33:24;;;;;;;0.35;0.30;;;20.80;30.70;21.20;93838.00;;;;10310104;28;45338;-65
2021/11/22 12:38:29;;;;;;;0.93;0.40;;;20.80;30.50;21.20;93818.00;;;;10310003;28;45516;-66
2021/11/22 12:43:47;;;;;;;1.33;0.68;;;20.80;30.90;21.20;93831.00;;;;10308544;28;48594;-66
2021/11/22 12:48:52;;;;;;;0.43;0.40;;;20.80;31.20;21.20;93848.00;;;;10322527;28;45632;-62
2021/11/22 12:54:02;;;;;;;0.50;0.30;;;20.80;30.40;21.20;93850.00;;;;10332107;28;47393;-63
2021/11/22 12:59:16;;;;;;;0.65;0.35;;;20.80;30.70;21.20;93845.00;;;;10356167;28;46826;-66
2021/11/22 13:04:43;;;;;;;0.50;0.30;;;20.90;30.40;21.30;93858.00;;;;10356195;28;47109;-60
2021/11/22 13:09:44;;;;;;;1.65;0.45;;;20.90;30.10;21.30;93846.00;;;;10293690;28;46792;-65
2021/11/22 13:14:49;;;;;;;0.30;0.30;;;20.90;30.40;21.10;93858.00;;;;10290296;28;47383;-62
2021/11/22 13:19:56;;;;;;;0.55;0.28;;;20.90;29.40;21.10;93861.00;;;;10290464;28;46514;-64
2021/11/22 13:24:57;;;;;;;0.32;0.25;;;20.80;29.60;21.00;93849.00;;;;10275443;28;46151;-63
2021/11/22 13:30:02;;;;;;;1.05;0.40;;;20.70;28.90;21.10;93873.00;;;;10275501;28;45621;-61
2021/11/22 13:35:21;;;;;;;2.20;0.30;;;20.70;29.20;21.10;93864.00;;;;10290352;28;46145;-61
2021/11/22 13:40:27;;;;;;;3.45;0.40;;;20.70;29.50;21.10;93858.00;;;;10290607;28;45349;-67
2021/11/22 13:45:28;;;;;;;0.82;0.30;;;20.70;29.70;21.20;93868.00;;;;10324070;28;46809;-62
2021/11/22 13:50:48;;;;;;;4.53;0.40;;;20.80;30.00;21.10;93878.00;;;;10342199;28;45309;-62
2021/11/22 13:55:48;;;;;;;1.42;0.38;;;20.70;29.60;21.00;93881.00;;;;10338698;28;46927;-62
2021/11/22 14:00:56;;;;;;;6.88;0.40;;;20.70;29.30;21.00;93878.00;;;;10355319;28;45338;-63
2021/11/22 14:05:57;;;;;;;1.88;0.60;;;20.70;29.40;21.00;93887.00;;;;10352880;28;45198;-60
2021/11/22 14:10:58;;;;;;;0.82;0.30;;;20.60;29.30;21.10;93897.00;;;;10337882;28;46928;-60
2021/11/22 14:15:58;;;;;;;5.57;0.50;;;20.70;29.50;21.10;93897.00;;;;10355352;28;45615;-61
2021/11/22 14:20:59;;;;;;;2.80;0.40;;;20.70;29.40;21.10;93904.00;;;;10353948;28;45325;-61
2021/11/22 14:26:10;;;;;;;2.75;0.40;;;20.70;29.40;21.10;93911.00;;;;10353445;28;46376;-60
2021/11/22 14:31:24;;;;;;;0.85;0.30;;;20.70;29.50;21.10;93909.00;;;;10337048;28;48044;-60
2021/11/22 14:36:38;;;;;;;2.63;0.50;;;20.70;29.50;21.20;93912.00;;;;10353412;28;45535;-60
2021/11/22 14:41:46;;;;;;;1.00;0.50;;;20.70;30.00;21.00;93922.00;;;;10353153;28;47476;-61
2021/11/22 14:46:57;;;;;;;0.80;0.40;;;20.70;29.10;21.00;93929.00;;;;10352692;28;47812;-61
2021/11/22 14:51:58;;;;;;;2.20;0.25;;;20.70;29.60;20.90;93916.00;;;;10314513;28;45146;-61
2021/11/22 14:57:11;;;;;;;1.73;0.70;;;20.60;28.80;20.90;93919.00;;;;10312289;28;45232;-67
2021/11/22 15:02:33;;;;;;;0.98;0.47;;;20.60;28.70;20.90;93942.00;;;;10332507;28;45410;-63
2021/11/22 15:07:34;;;;;;;0.70;0.40;;;20.50;28.90;21.00;93940.00;;;;10330685;28;46945;-67
2021/11/22 15:12:36;;;;;;;2.72;0.40;;;20.60;29.50;21.10;93950.00;;;;10351473;28;45580;-64
2021/11/22 15:17:38;;;;;;;0.52;0.20;;;20.60;29.70;21.10;93945.00;;;;10351410;28;46703;-68
2021/11/22 15:22:40;;;;;;;1.20;0.40;;;20.70;30.00;21.10;93954.00;;;;10299597;28;46956;-64
2021/11/22 15:27:43;;;;;;;0.88;0.30;;;20.70;30.00;21.10;93943.00;;;;10310500;28;46545;-64
2021/11/22 15:32:45;;;;;;;0.85;0.32;;;20.70;30.00;21.10;93953.00;;;;10311026;28;45472;-62
2021/11/22 15:37:46;;;;;;;0.40;0.22;;;20.80;30.20;21.20;93960.00;;;;10311293;28;46808;-67
2021/11/22 15:42:47;;;;;;;0.30;0.30;;;20.80;30.10;21.20;93958.00;;;;10308810;28;45304;-69
2021/11/22 15:47:48;;;;;;;1.13;0.38;;;20.80;30.50;21.10;93970.00;;;;10315530;28;46541;-60
2021/11/22 15:52:49;;;;;;;3.53;0.50;;;20.80;30.00;21.10;93979.00;;;;10334294;28;45229;-63
2021/11/22 15:57:56;;;;;;;1.08;0.60;;;20.80;30.00;21.10;93987.00;;;;10309132;28;46765;-67
2021/11/22 16:02:56;;;;;;;1.27;0.80;;;20.80;30.10;21.00;93993.00;;;;10292748;28;47368;-63
2021/11/22 16:07:57;;;;;;;1.10;0.85;;;20.80;29.90;20.90;94005.00;;;;10308881;28;46160;-61
2021/11/22 16:12:58;;;;;;;1.05;0.70;;;20.70;29.20;20.80;93982.00;;;;10292370;28;47270;-58
2021/11/22 16:17:58;;;;;;;0.70;0.70;;;20.60;29.20;20.80;93987.00;;;;10307953;28;45419;-58
2021/11/22 16:22:59;;;;;;;1.08;0.50;;;20.60;28.90;20.90;93999.00;;;;10307854;28;45444;-58
2021/11/22 16:28:00;;;;;;;1.10;0.75;;;20.50;29.00;20.80;94010.00;;;;10307812;28;46749;-58
2021/11/22 16:33:02;;;;;;;1.35;0.70;;;20.50;28.90;20.80;94003.00;;;;10314765;28;45150;-58
2021/11/22 16:38:03;;;;;;;1.40;0.77;;;20.50;28.90;20.70;94020.00;;;;10314436;28;45254;-58
2021/11/22 16:43:03;;;;;;;0.65;0.40;;;20.50;28.80;20.90;94015.00;;;;10312728;28;45246;-59
2021/11/22 16:48:04;;;;;;;1.05;0.55;;;20.50;28.90;21.00;94030.00;;;;10316323;28;45178;-62
2021/11/22 16:53:05;;;;;;;2.85;0.57;;;20.60;29.30;21.10;94034.00;;;;10314874;28;47199;-61
2021/11/22 16:58:06;;;;;;;0.40;0.40;;;20.60;29.40;21.10;94037.00;;;;10313748;28;45231;-62
2021/11/22 17:03:07;;;;;;;0.73;0.50;;;20.70;29.60;21.20;94043.00;;;;10314512;28;46460;-62
2021/11/22 17:08:08;;;;;;;0.40;0.40;;;20.70;29.70;21.20;94051.00;;;;10331572;28;46906;-62
2021/11/22 17:13:08;;;;;;;0.68;0.40;;;20.80;29.80;21.20;94066.00;;;;10323871;28;45328;-62
2021/11/22 17:18:10;;;;;;;1.45;0.60;;;20.80;30.00;21.20;94072.00;;;;10297026;28;48397;-59
2021/11/22 17:23:11;;;;;;;0.80;0.60;;;20.80;29.70;21.20;94066.00;;;;10313818;28;45502;-59
2021/11/22 17:28:12;;;;;;;1.02;0.50;;;20.80;30.20;21.20;94058.00;;;;10313508;28;45661;-59
2021/11/22 17:33:12;;;;;;;1.20;0.70;;;20.80;29.70;21.20;94086.00;;;;10312639;28;45573;-59
2021/11/22 17:38:13;;;;;;;0.98;0.60;;;20.80;29.60;21.20;94066.00;;;;10310779;28;45550;-59
2021/11/22 17:43:14;;;;;;;1.20;0.63;;;20.80;29.70;21.20;94085.00;;;;10313285;28;46246;-58
2021/11/22 17:48:15;;;;;;;1.08;0.80;;;20.80;29.60;21.20;94078.00;;;;10313176;28;45628;-58
2021/11/22 17:53:15;;;;;;;1.20;0.60;;;20.80;29.60;21.20;94090.00;;;;10312461;28;45425;-58
2021/11/22 17:58:20;;;;;;;0.70;0.60;;;20.70;29.50;21.20;94091.00;;;;10312879;28;45298;-58
2021/11/22 18:03:22;;;;;;;1.63;0.68;;;20.70;30.00;21.10;94101.00;;;;10316366;28;46061;-59
2021/11/22 18:08:24;;;;;;;0.80;0.77;;;20.70;29.50;21.10;94094.00;;;;10366996;22;45553;-63
2021/11/22 18:13:27;;;;;;;3.47;0.80;;;20.70;29.50;21.10;94110.00;;;;10363080;28;45195;-63
2021/11/22 18:18:28;;;;;;;1.95;0.80;;;20.70;29.50;21.10;94094.00;;;;10353531;28;46535;-62
2021/11/22 18:23:29;;;;;;;1.20;0.80;;;20.70;29.40;21.10;94105.00;;;;10316292;28;46435;-63
2021/11/22 18:28:29;;;;;;;1.48;0.70;;;20.70;29.50;21.00;94112.00;;;;10313059;28;45220;-63
2021/11/22 18:33:31;;;;;;;1.45;0.80;;;20.70;29.40;21.10;94092.00;;;;10312450;28;46888;-63
2021/11/22 18:38:33;;;;;;;0.85;0.57;;;20.70;29.40;21.10;94105.00;;;;10312156;28;46926;-63
2021/11/22 18:43:34;;;;;;;0.90;0.70;;;20.70;29.50;21.10;94091.00;;;;10312762;28;45458;-63
2021/11/22 18:48:35;;;;;;;0.50;0.50;;;20.70;29.30;21.10;94104.00;;;;10324975;28;45399;-63
2021/11/22 18:53:36;;;;;;;0.68;0.60;;;20.70;29.30;21.10;94120.00;;;;10369055;28;46269;-63
2021/11/22 18:58:37;;;;;;;1.20;0.70;;;20.70;29.40;21.10;94115.00;;;;10368834;28;47122;-63
2021/11/22 19:03:38;;;;;;;1.00;0.63;;;20.70;29.40;21.10;94132.00;;;;10368954;28;45284;-63
2021/11/22 19:08:40;;;;;;;1.90;0.80;;;20.70;29.90;21.10;94129.00;;;;10346982;28;47100;-63
2021/11/22 19:13:42;;;;;;;1.33;0.73;;;20.70;29.20;21.10;94140.00;;;;10352756;28;46383;-63
2021/11/22 19:18:44;;;;;;;0.77;0.63;;;20.70;29.40;21.10;94131.00;;;;10349722;28;45402;-63
2021/11/22 19:23:44;;;;;;;0.77;0.70;;;20.70;29.30;21.10;94142.00;;;;10353391;28;45204;-63
2021/11/22 19:28:46;;;;;;;1.02;0.60;;;20.80;29.30;21.10;94157.00;;;;10367957;28;45319;-63
2021/11/22 19:33:46;;;;;;;1.02;0.80;;;20.70;29.70;21.10;94154.00;;;;10351481;28;47045;-63
2021/11/22 19:38:47;;;;;;;0.70;0.60;;;20.70;29.20;21.10;94142.00;;;;10352456;28;46670;-63
2021/11/22 19:43:49;;;;;;;0.82;0.60;;;20.70;29.20;21.10;94153.00;;;;10367155;28;47100;-63
2021/11/22 19:48:51;;;;;;;0.60;0.50;;;20.70;29.30;21.10;94152.00;;;;10366793;28;45229;-63
2021/11/22 19:53:52;;;;;;;0.60;0.40;;;20.70;29.10;21.10;94172.00;;;;10352300;28;46533;-63
2021/11/22 19:58:53;;;;;;;0.80;0.70;;;20.70;29.20;21.10;94146.00;;;;10367177;28;46641;-63
2021/11/22 20:03:56;;;;;;;0.60;0.55;;;20.70;29.10;21.10;94149.00;;;;10350538;28;47463;-65
2021/11/22 20:08:56;;;;;;;0.75;0.50;;;20.60;29.10;21.10;94168.00;;;;10350004;28;47222;-63
2021/11/22 20:14:03;;;;;;;0.40;0.40;;;20.70;29.10;21.20;94167.00;;;;10367754;28;48435;-63
2021/11/22 20:19:07;;;;;;;;;;;20.70;29.10;21.20;94186.00;;;;10367077;28;47276;-63
2021/11/22 20:24:11;;;;;;;0.75;0.60;;;20.70;29.10;21.10;94186.00;;;;10349826;28;46863;-63
2021/11/22 20:29:12;;;;;;;0.75;0.60;;;20.70;29.10;21.10;94165.00;;;;10343612;28;45451;-63
2021/11/22 20:34:14;;;;;;;0.70;0.60;;;20.70;29.10;21.10;94182.00;;;;10349825;28;46187;-63
2021/11/22 20:39:16;;;;;;;1.75;0.40;;;20.70;29.20;21.20;94166.00;;;;10349125;28;45317;-63
2021/11/22 20:44:18;;;;;;;0.75;0.52;;;20.70;29.20;21.20;94180.00;;;;10349918;28;45186;-63
2021/11/22 20:49:19;;;;;;;1.00;0.60;;;20.70;29.20;21.20;94193.00;;;;10299253;28;46419;-63
2021/11/22 20:54:20;;;;;;;0.60;0.47;;;20.70;29.20;21.20;94206.00;;;;10324934;28;45830;-63
2021/11/22 20:59:21;;;;;;;0.85;0.60;;;20.70;29.20;21.20;94190.00;;;;10324731;28;46997;-64
2021/11/22 21:04:23;;;;;;;0.30;0.30;;;20.80;29.50;21.30;94205.00;;;;10324537;28;46277;-64
2021/11/22 21:09:25;;;;;;;0.40;0.40;;;20.80;29.90;21.30;94214.00;;;;10329778;28;48187;-64
2021/11/22 21:14:27;;;;;;;0.73;0.40;;;20.80;29.30;21.30;94192.00;;;;10308401;28;45455;-64
2021/11/22 21:19:30;;;;;;;0.60;0.38;;;20.80;29.20;21.30;94214.00;;;;10314153;28;45569;-64
2021/11/22 21:24:31;;;;;;;0.50;0.50;;;20.80;29.10;21.30;94214.00;;;;10318219;28;46989;-64
2021/11/22 21:29:35;;;;;;;0.50;0.50;;;20.80;29.10;21.30;94220.00;;;;10343855;28;46075;-64
2021/11/22 21:34:36;;;;;;;0.40;0.40;;;20.80;29.10;21.20;94219.00;;;;10368006;28;45185;-63
2021/11/22 21:39:37;;;;;;;0.50;0.50;;;20.80;29.10;21.20;94206.00;;;;10356307;28;45534;-64
2021/11/22 21:44:38;;;;;;;0.50;0.45;;;20.80;29.10;21.10;94213.00;;;;10370912;28;45957;-64
2021/11/22 21:49:39;;;;;;;0.63;0.38;;;20.70;29.00;21.10;94217.00;;;;10348728;28;45500;-65
2021/11/22 21:54:40;;;;;;;0.50;0.40;;;20.70;28.90;21.10;94208.00;;;;10329436;28;46885;-64
2021/11/22 21:59:41;;;;;;;0.30;0.30;;;20.70;29.00;21.10;94234.00;;;;10329055;28;45625;-65
2021/11/22 22:04:41;;;;;;;0.50;0.30;;;20.60;29.00;21.10;94242.00;;;;10329715;28;45159;-62
2021/11/22 22:09:42;;;;;;;0.45;0.35;;;20.70;29.00;21.00;94223.00;;;;10329116;28;45228;-64
2021/11/22 22:14:43;;;;;;;1.35;0.50;;;20.60;28.90;21.00;94221.00;;;;10312821;28;48055;-64